sensor_id;sensor_type;location;lat;lon;timestamp;temperature;humidity
51801;DHT22;37855;53.204;6.568;2023-08-06T00:02:14;14.10;81.80
51801;DHT22;37855;53.204;6.568;2023-08-06T00:04:39;14.10;81.80
51801;DHT22;37855;53.204;6.568;2023-08-06T00:07:05;14.10;82.10
51801;DHT22;37855;53.204;6.568;2023-08-06T00:09:31;14.00;82.30
51801;DHT22;37855;53.204;6.568;2023-08-06T00:11:57;14.00;82.30
51801;DHT22;37855;53.204;6.568;2023-08-06T00:14:22;14.00;82.50
51801;DHT22;37855;53.204;6.568;2023-08-06T00:16:48;13.90;82.70
51801;DHT22;37855;53.204;6.568;2023-08-06T00:19:14;13.90;82.60
51801;DHT22;37855;53.204;6.568;2023-08-06T00:21:39;13.90;82.60
51801;DHT22;37855;53.204;6.568;2023-08-06T00:24:05;13.90;82.80
51801;DHT22;37855;53.204;6.568;2023-08-06T00:26:31;13.80;82.90
51801;DHT22;37855;53.204;6.568;2023-08-06T00:28:57;13.80;82.90
51801;DHT22;37855;53.204;6.568;2023-08-06T00:31:22;13.80;82.70
51801;DHT22;37855;53.204;6.568;2023-08-06T00:33:48;13.90;82.60
51801;DHT22;37855;53.204;6.568;2023-08-06T00:36:13;13.90;82.40
51801;DHT22;37855;53.204;6.568;2023-08-06T00:38:39;13.90;82.40
51801;DHT22;37855;53.204;6.568;2023-08-06T00:41:05;14.00;82.20
51801;DHT22;37855;53.204;6.568;2023-08-06T00:43:30;14.00;82.10
51801;DHT22;37855;53.204;6.568;2023-08-06T00:45:56;14.00;81.90
51801;DHT22;37855;53.204;6.568;2023-08-06T00:48:22;14.00;81.80
51801;DHT22;37855;53.204;6.568;2023-08-06T00:50:48;14.10;81.60
51801;DHT22;37855;53.204;6.568;2023-08-06T00:53:14;14.10;81.60
51801;DHT22;37855;53.204;6.568;2023-08-06T00:55:40;14.10;81.60
51801;DHT22;37855;53.204;6.568;2023-08-06T00:58:05;14.20;81.50
51801;DHT22;37855;53.204;6.568;2023-08-06T01:00:31;14.10;81.50
51801;DHT22;37855;53.204;6.568;2023-08-06T01:02:57;14.10;81.40
51801;DHT22;37855;53.204;6.568;2023-08-06T01:05:23;14.20;81.50
51801;DHT22;37855;53.204;6.568;2023-08-06T01:15:44;13.90;82.00
51801;DHT22;37855;53.204;6.568;2023-08-06T01:18:13;14.00;81.90
51801;DHT22;37855;53.204;6.568;2023-08-06T01:20:40;14.00;81.80
51801;DHT22;37855;53.204;6.568;2023-08-06T01:23:06;14.00;81.70
51801;DHT22;37855;53.204;6.568;2023-08-06T01:29:18;13.90;82.20
51801;DHT22;37855;53.204;6.568;2023-08-06T01:31:43;13.90;81.80
51801;DHT22;37855;53.204;6.568;2023-08-06T01:34:17;13.90;81.90
51801;DHT22;37855;53.204;6.568;2023-08-06T01:36:43;14.00;81.80
51801;DHT22;37855;53.204;6.568;2023-08-06T01:39:09;14.00;81.80
51801;DHT22;37855;53.204;6.568;2023-08-06T01:41:35;13.90;82.20
51801;DHT22;37855;53.204;6.568;2023-08-06T01:44:01;13.90;81.90
51801;DHT22;37855;53.204;6.568;2023-08-06T01:46:26;13.90;82.10
51801;DHT22;37855;53.204;6.568;2023-08-06T01:48:55;13.80;82.10
51801;DHT22;37855;53.204;6.568;2023-08-06T01:51:21;13.80;82.20
51801;DHT22;37855;53.204;6.568;2023-08-06T01:53:46;13.80;82.40
51801;DHT22;37855;53.204;6.568;2023-08-06T01:56:12;13.80;82.30
51801;DHT22;37855;53.204;6.568;2023-08-06T01:58:41;13.80;82.60
51801;DHT22;37855;53.204;6.568;2023-08-06T02:01:06;13.70;83.00
51801;DHT22;37855;53.204;6.568;2023-08-06T02:03:32;13.70;83.20
51801;DHT22;37855;53.204;6.568;2023-08-06T02:05:58;13.60;83.30
51801;DHT22;37855;53.204;6.568;2023-08-06T02:08:23;13.70;83.00
51801;DHT22;37855;53.204;6.568;2023-08-06T02:10:49;13.70;82.70
51801;DHT22;37855;53.204;6.568;2023-08-06T02:13:15;13.80;82.80
51801;DHT22;37855;53.204;6.568;2023-08-06T02:15:44;13.80;82.60
51801;DHT22;37855;53.204;6.568;2023-08-06T02:18:11;13.90;82.70
51801;DHT22;37855;53.204;6.568;2023-08-06T02:20:36;13.90;82.50
51801;DHT22;37855;53.204;6.568;2023-08-06T02:23:02;13.90;82.40
51801;DHT22;37855;53.204;6.568;2023-08-06T02:25:28;13.90;82.20
51801;DHT22;37855;53.204;6.568;2023-08-06T02:27:53;14.00;82.10
51801;DHT22;37855;53.204;6.568;2023-08-06T02:30:19;14.00;82.10
51801;DHT22;37855;53.204;6.568;2023-08-06T02:32:47;14.10;82.20
51801;DHT22;37855;53.204;6.568;2023-08-06T02:35:13;14.10;82.00
51801;DHT22;37855;53.204;6.568;2023-08-06T02:37:38;14.10;82.00
51801;DHT22;37855;53.204;6.568;2023-08-06T02:40:05;14.10;82.10
51801;DHT22;37855;53.204;6.568;2023-08-06T02:42:30;14.00;82.10
51801;DHT22;37855;53.204;6.568;2023-08-06T02:44:56;14.00;82.10
51801;DHT22;37855;53.204;6.568;2023-08-06T02:47:22;14.10;82.00
51801;DHT22;37855;53.204;6.568;2023-08-06T02:49:48;14.10;82.10
51801;DHT22;37855;53.204;6.568;2023-08-06T02:52:13;14.10;82.00
51801;DHT22;37855;53.204;6.568;2023-08-06T02:54:39;14.10;81.90
51801;DHT22;37855;53.204;6.568;2023-08-06T02:57:05;14.00;82.20
51801;DHT22;37855;53.204;6.568;2023-08-06T02:59:31;13.90;82.60
51801;DHT22;37855;53.204;6.568;2023-08-06T03:01:57;13.90;82.60
51801;DHT22;37855;53.204;6.568;2023-08-06T03:04:23;13.90;82.70
51801;DHT22;37855;53.204;6.568;2023-08-06T03:06:50;13.80;82.80
51801;DHT22;37855;53.204;6.568;2023-08-06T03:09:16;13.80;83.00
51801;DHT22;37855;53.204;6.568;2023-08-06T03:11:42;13.80;83.00
51801;DHT22;37855;53.204;6.568;2023-08-06T03:14:08;13.80;83.10
51801;DHT22;37855;53.204;6.568;2023-08-06T03:16:33;13.70;83.20
51801;DHT22;37855;53.204;6.568;2023-08-06T03:18:59;13.80;83.10
51801;DHT22;37855;53.204;6.568;2023-08-06T03:21:25;13.70;83.00
51801;DHT22;37855;53.204;6.568;2023-08-06T03:23:51;13.70;83.10
51801;DHT22;37855;53.204;6.568;2023-08-06T03:26:16;13.80;82.80
51801;DHT22;37855;53.204;6.568;2023-08-06T03:28:42;13.80;82.70
51801;DHT22;37855;53.204;6.568;2023-08-06T03:31:08;13.80;82.60
51801;DHT22;37855;53.204;6.568;2023-08-06T03:33:33;13.80;82.50
51801;DHT22;37855;53.204;6.568;2023-08-06T03:35:59;13.80;82.40
51801;DHT22;37855;53.204;6.568;2023-08-06T03:38:28;13.80;82.30
51801;DHT22;37855;53.204;6.568;2023-08-06T03:40:54;13.80;82.40
51801;DHT22;37855;53.204;6.568;2023-08-06T03:43:19;13.80;82.30
51801;DHT22;37855;53.204;6.568;2023-08-06T03:45:48;13.80;82.40
51801;DHT22;37855;53.204;6.568;2023-08-06T03:48:13;13.80;82.30
51801;DHT22;37855;53.204;6.568;2023-08-06T03:50:39;13.80;82.20
51801;DHT22;37855;53.204;6.568;2023-08-06T03:53:05;13.90;82.10
51801;DHT22;37855;53.204;6.568;2023-08-06T03:55:30;13.90;82.10
51801;DHT22;37855;53.204;6.568;2023-08-06T03:57:56;14.00;82.00
51801;DHT22;37855;53.204;6.568;2023-08-06T04:00:22;14.00;82.00
51801;DHT22;37855;53.204;6.568;2023-08-06T04:02:47;14.10;82.00
51801;DHT22;37855;53.204;6.568;2023-08-06T04:05:14;14.10;81.80
51801;DHT22;37855;53.204;6.568;2023-08-06T04:07:40;14.00;81.70
51801;DHT22;37855;53.204;6.568;2023-08-06T04:10:06;14.00;81.70
51801;DHT22;37855;53.204;6.568;2023-08-06T04:12:31;14.10;81.70
51801;DHT22;37855;53.204;6.568;2023-08-06T04:15:02;14.10;81.70
51801;DHT22;37855;53.204;6.568;2023-08-06T04:17:28;14.10;81.70
51801;DHT22;37855;53.204;6.568;2023-08-06T04:19:54;14.10;81.70
51801;DHT22;37855;53.204;6.568;2023-08-06T04:22:23;14.00;81.80
51801;DHT22;37855;53.204;6.568;2023-08-06T04:24:49;14.00;81.90
51801;DHT22;37855;53.204;6.568;2023-08-06T04:27:16;14.00;82.00
51801;DHT22;37855;53.204;6.568;2023-08-06T04:29:42;13.90;82.10
51801;DHT22;37855;53.204;6.568;2023-08-06T04:32:09;13.90;82.00
51801;DHT22;37855;53.204;6.568;2023-08-06T04:34:38;13.90;82.20
51801;DHT22;37855;53.204;6.568;2023-08-06T04:37:05;13.90;82.40
51801;DHT22;37855;53.204;6.568;2023-08-06T04:39:31;13.80;82.40
51801;DHT22;37855;53.204;6.568;2023-08-06T04:41:56;13.80;82.50
51801;DHT22;37855;53.204;6.568;2023-08-06T04:44:25;13.80;82.20
51801;DHT22;37855;53.204;6.568;2023-08-06T04:46:52;13.80;82.40
51801;DHT22;37855;53.204;6.568;2023-08-06T04:49:21;13.80;82.50
51801;DHT22;37855;53.204;6.568;2023-08-06T04:51:49;13.80;82.60
51801;DHT22;37855;53.204;6.568;2023-08-06T04:54:15;13.80;82.60
51801;DHT22;37855;53.204;6.568;2023-08-06T04:56:41;13.80;82.70
51801;DHT22;37855;53.204;6.568;2023-08-06T04:59:06;13.80;82.60
51801;DHT22;37855;53.204;6.568;2023-08-06T05:01:32;13.80;82.50
51801;DHT22;37855;53.204;6.568;2023-08-06T05:03:58;13.80;82.50
51801;DHT22;37855;53.204;6.568;2023-08-06T05:06:23;13.80;82.70
51801;DHT22;37855;53.204;6.568;2023-08-06T05:08:49;13.80;82.70
51801;DHT22;37855;53.204;6.568;2023-08-06T05:11:15;13.80;82.50
51801;DHT22;37855;53.204;6.568;2023-08-06T05:13:41;13.80;82.60
51801;DHT22;37855;53.204;6.568;2023-08-06T05:16:06;13.80;82.50
51801;DHT22;37855;53.204;6.568;2023-08-06T05:18:32;13.80;82.40
51801;DHT22;37855;53.204;6.568;2023-08-06T05:20:59;13.90;82.10
51801;DHT22;37855;53.204;6.568;2023-08-06T05:23:27;13.90;82.00
51801;DHT22;37855;53.204;6.568;2023-08-06T05:25:52;13.90;82.10
51801;DHT22;37855;53.204;6.568;2023-08-06T05:28:18;13.90;82.20
51801;DHT22;37855;53.204;6.568;2023-08-06T05:30:44;14.00;82.10
51801;DHT22;37855;53.204;6.568;2023-08-06T05:33:09;14.00;82.00
51801;DHT22;37855;53.204;6.568;2023-08-06T05:35:35;14.10;82.00
51801;DHT22;37855;53.204;6.568;2023-08-06T05:38:01;14.20;81.90
51801;DHT22;37855;53.204;6.568;2023-08-06T05:40:27;14.30;81.90
51801;DHT22;37855;53.204;6.568;2023-08-06T05:42:55;14.40;81.80
51801;DHT22;37855;53.204;6.568;2023-08-06T05:45:21;14.50;81.70
51801;DHT22;37855;53.204;6.568;2023-08-06T05:47:50;14.50;81.50
51801;DHT22;37855;53.204;6.568;2023-08-06T05:50:16;14.60;81.60
51801;DHT22;37855;53.204;6.568;2023-08-06T05:52:41;14.70;81.50
51801;DHT22;37855;53.204;6.568;2023-08-06T05:55:07;14.70;81.40
51801;DHT22;37855;53.204;6.568;2023-08-06T05:57:33;14.80;80.90
51801;DHT22;37855;53.204;6.568;2023-08-06T05:59:59;14.80;80.60
51801;DHT22;37855;53.204;6.568;2023-08-06T06:02:24;14.70;80.80
51801;DHT22;37855;53.204;6.568;2023-08-06T06:04:52;14.70;80.80
51801;DHT22;37855;53.204;6.568;2023-08-06T06:07:17;14.80;80.80
51801;DHT22;37855;53.204;6.568;2023-08-06T06:09:43;14.80;80.80
51801;DHT22;37855;53.204;6.568;2023-08-06T06:12:09;14.80;80.80
51801;DHT22;37855;53.204;6.568;2023-08-06T06:14:34;14.80;80.80
51801;DHT22;37855;53.204;6.568;2023-08-06T06:17:00;14.90;80.60
51801;DHT22;37855;53.204;6.568;2023-08-06T06:19:26;14.90;80.50
51801;DHT22;37855;53.204;6.568;2023-08-06T06:21:52;14.90;80.40
51801;DHT22;37855;53.204;6.568;2023-08-06T06:24:18;15.00;80.30
51801;DHT22;37855;53.204;6.568;2023-08-06T06:26:44;15.00;80.20
51801;DHT22;37855;53.204;6.568;2023-08-06T06:29:09;15.10;80.50
51801;DHT22;37855;53.204;6.568;2023-08-06T06:31:35;15.10;80.30
51801;DHT22;37855;53.204;6.568;2023-08-06T06:34:01;15.30;80.10
51801;DHT22;37855;53.204;6.568;2023-08-06T06:36:26;15.40;80.10
51801;DHT22;37855;53.204;6.568;2023-08-06T06:38:52;15.40;80.10
51801;DHT22;37855;53.204;6.568;2023-08-06T06:41:18;15.50;79.60
51801;DHT22;37855;53.204;6.568;2023-08-06T06:43:44;15.60;79.70
51801;DHT22;37855;53.204;6.568;2023-08-06T06:46:10;15.70;79.60
51801;DHT22;37855;53.204;6.568;2023-08-06T06:48:36;15.70;79.50
51801;DHT22;37855;53.204;6.568;2023-08-06T06:51:02;15.70;78.30
51801;DHT22;37855;53.204;6.568;2023-08-06T06:53:28;15.70;78.30
51801;DHT22;37855;53.204;6.568;2023-08-06T06:56:02;15.70;77.80
51801;DHT22;37855;53.204;6.568;2023-08-06T06:58:28;15.70;78.10
51801;DHT22;37855;53.204;6.568;2023-08-06T07:00:55;15.80;78.00
51801;DHT22;37855;53.204;6.568;2023-08-06T07:03:21;15.80;78.30
51801;DHT22;37855;53.204;6.568;2023-08-06T07:05:46;15.80;78.10
51801;DHT22;37855;53.204;6.568;2023-08-06T07:08:12;15.90;77.80
51801;DHT22;37855;53.204;6.568;2023-08-06T07:10:40;15.90;77.90
51801;DHT22;37855;53.204;6.568;2023-08-06T07:13:06;16.00;78.10
51801;DHT22;37855;53.204;6.568;2023-08-06T07:15:32;16.10;78.00
51801;DHT22;37855;53.204;6.568;2023-08-06T07:17:57;16.20;77.20
51801;DHT22;37855;53.204;6.568;2023-08-06T07:20:23;16.20;76.80
51801;DHT22;37855;53.204;6.568;2023-08-06T07:22:49;16.20;77.00
51801;DHT22;37855;53.204;6.568;2023-08-06T07:25:16;16.20;77.00
51801;DHT22;37855;53.204;6.568;2023-08-06T07:27:42;16.30;76.60
51801;DHT22;37855;53.204;6.568;2023-08-06T07:30:08;16.30;76.30
51801;DHT22;37855;53.204;6.568;2023-08-06T07:32:34;16.40;76.40
51801;DHT22;37855;53.204;6.568;2023-08-06T07:34:59;16.40;76.50
51801;DHT22;37855;53.204;6.568;2023-08-06T07:37:29;16.40;76.50
51801;DHT22;37855;53.204;6.568;2023-08-06T07:39:55;16.50;76.50
51801;DHT22;37855;53.204;6.568;2023-08-06T07:42:22;16.50;76.60
51801;DHT22;37855;53.204;6.568;2023-08-06T07:44:55;16.60;76.40
51801;DHT22;37855;53.204;6.568;2023-08-06T07:47:21;16.60;76.20
51801;DHT22;37855;53.204;6.568;2023-08-06T07:49:47;16.80;76.30
51801;DHT22;37855;53.204;6.568;2023-08-06T07:52:13;17.00;75.70
51801;DHT22;37855;53.204;6.568;2023-08-06T07:54:38;17.10;75.50
51801;DHT22;37855;53.204;6.568;2023-08-06T07:57:04;17.30;73.90
51801;DHT22;37855;53.204;6.568;2023-08-06T07:59:30;17.30;74.40
51801;DHT22;37855;53.204;6.568;2023-08-06T08:01:56;17.50;74.80
51801;DHT22;37855;53.204;6.568;2023-08-06T08:04:22;17.60;73.90
51801;DHT22;37855;53.204;6.568;2023-08-06T08:06:52;17.70;73.40
51801;DHT22;37855;53.204;6.568;2023-08-06T08:09:18;17.70;72.00
51801;DHT22;37855;53.204;6.568;2023-08-06T08:11:43;17.80;73.10
51801;DHT22;37855;53.204;6.568;2023-08-06T08:14:09;18.00;73.30
51801;DHT22;37855;53.204;6.568;2023-08-06T08:16:39;18.20;73.20
51801;DHT22;37855;53.204;6.568;2023-08-06T08:19:05;18.40;71.90
51801;DHT22;37855;53.204;6.568;2023-08-06T08:21:31;18.50;71.10
51801;DHT22;37855;53.204;6.568;2023-08-06T08:23:59;18.50;71.10
51801;DHT22;37855;53.204;6.568;2023-08-06T08:26:25;18.60;70.30
51801;DHT22;37855;53.204;6.568;2023-08-06T08:28:54;18.60;71.00
51801;DHT22;37855;53.204;6.568;2023-08-06T08:31:19;18.60;71.40
51801;DHT22;37855;53.204;6.568;2023-08-06T08:33:45;18.60;70.90
51801;DHT22;37855;53.204;6.568;2023-08-06T08:36:11;18.70;70.10
51801;DHT22;37855;53.204;6.568;2023-08-06T08:38:36;18.80;69.80
51801;DHT22;37855;53.204;6.568;2023-08-06T08:41:02;18.80;70.00
51801;DHT22;37855;53.204;6.568;2023-08-06T08:43:29;18.80;68.70
51801;DHT22;37855;53.204;6.568;2023-08-06T08:45:55;18.90;67.00
51801;DHT22;37855;53.204;6.568;2023-08-06T08:48:24;18.80;67.00
51801;DHT22;37855;53.204;6.568;2023-08-06T08:50:50;18.80;67.00
51801;DHT22;37855;53.204;6.568;2023-08-06T08:53:17;18.80;67.60
51801;DHT22;37855;53.204;6.568;2023-08-06T08:55:46;19.10;67.40
51801;DHT22;37855;53.204;6.568;2023-08-06T08:58:12;19.20;67.20
51801;DHT22;37855;53.204;6.568;2023-08-06T09:00:40;19.30;65.50
51801;DHT22;37855;53.204;6.568;2023-08-06T09:03:06;19.30;66.50
51801;DHT22;37855;53.204;6.568;2023-08-06T09:05:33;19.40;66.40
51801;DHT22;37855;53.204;6.568;2023-08-06T09:08:03;19.40;66.90
51801;DHT22;37855;53.204;6.568;2023-08-06T09:10:31;19.50;66.90
51801;DHT22;37855;53.204;6.568;2023-08-06T09:12:57;19.60;66.60
51801;DHT22;37855;53.204;6.568;2023-08-06T09:15:28;19.70;64.30
51801;DHT22;37855;53.204;6.568;2023-08-06T09:17:55;19.70;65.70
51801;DHT22;37855;53.204;6.568;2023-08-06T09:20:20;19.90;65.30
51801;DHT22;37855;53.204;6.568;2023-08-06T09:22:48;19.90;63.00
51801;DHT22;37855;53.204;6.568;2023-08-06T09:25:25;19.90;63.80
51801;DHT22;37855;53.204;6.568;2023-08-06T09:27:52;20.00;63.60
51801;DHT22;37855;53.204;6.568;2023-08-06T09:30:34;20.00;62.70
51801;DHT22;37855;53.204;6.568;2023-08-06T09:33:00;19.90;62.70
51801;DHT22;37855;53.204;6.568;2023-08-06T09:35:32;19.80;63.70
51801;DHT22;37855;53.204;6.568;2023-08-06T09:38:08;19.90;63.50
51801;DHT22;37855;53.204;6.568;2023-08-06T09:40:36;19.90;63.90
51801;DHT22;37855;53.204;6.568;2023-08-06T09:43:02;20.00;62.80
51801;DHT22;37855;53.204;6.568;2023-08-06T09:45:35;20.00;61.90
51801;DHT22;37855;53.204;6.568;2023-08-06T09:48:08;20.00;62.30
51801;DHT22;37855;53.204;6.568;2023-08-06T09:50:38;19.90;62.50
51801;DHT22;37855;53.204;6.568;2023-08-06T09:53:05;20.00;62.20
51801;DHT22;37855;53.204;6.568;2023-08-06T09:55:32;20.10;62.10
51801;DHT22;37855;53.204;6.568;2023-08-06T09:57:59;20.10;61.40
51801;DHT22;37855;53.204;6.568;2023-08-06T10:00:27;20.10;61.30
51801;DHT22;37855;53.204;6.568;2023-08-06T10:03:00;20.20;61.50
51801;DHT22;37855;53.204;6.568;2023-08-06T10:05:26;20.30;61.40
51801;DHT22;37855;53.204;6.568;2023-08-06T10:07:52;20.30;61.60
51801;DHT22;37855;53.204;6.568;2023-08-06T10:10:19;20.40;61.70
51801;DHT22;37855;53.204;6.568;2023-08-06T10:12:53;20.50;61.20
51801;DHT22;37855;53.204;6.568;2023-08-06T10:15:25;20.60;61.30
51801;DHT22;37855;53.204;6.568;2023-08-06T10:17:56;20.60;60.50
51801;DHT22;37855;53.204;6.568;2023-08-06T10:20:22;20.50;58.90
51801;DHT22;37855;53.204;6.568;2023-08-06T10:23:14;20.30;59.80
51801;DHT22;37855;53.204;6.568;2023-08-06T10:25:42;20.50;59.20
51801;DHT22;37855;53.204;6.568;2023-08-06T10:28:12;20.60;59.10
51801;DHT22;37855;53.204;6.568;2023-08-06T10:30:47;20.60;59.20
51801;DHT22;37855;53.204;6.568;2023-08-06T10:33:13;20.70;59.80
51801;DHT22;37855;53.204;6.568;2023-08-06T10:35:43;20.90;60.10
51801;DHT22;37855;53.204;6.568;2023-08-06T10:38:15;21.00;60.10
51801;DHT22;37855;53.204;6.568;2023-08-06T10:43:34;21.10;59.10
51801;DHT22;37855;53.204;6.568;2023-08-06T10:46:01;21.10;59.50
51801;DHT22;37855;53.204;6.568;2023-08-06T10:48:38;21.10;58.90
51801;DHT22;37855;53.204;6.568;2023-08-06T10:51:09;21.00;60.30
51801;DHT22;37855;53.204;6.568;2023-08-06T10:53:35;21.00;60.90
51801;DHT22;37855;53.204;6.568;2023-08-06T10:56:01;20.80;60.00
51801;DHT22;37855;53.204;6.568;2023-08-06T10:58:33;20.70;60.10
51801;DHT22;37855;53.204;6.568;2023-08-06T11:01:01;20.80;59.20
51801;DHT22;37855;53.204;6.568;2023-08-06T11:03:28;20.60;59.10
51801;DHT22;37855;53.204;6.568;2023-08-06T11:05:53;20.60;59.70
51801;DHT22;37855;53.204;6.568;2023-08-06T11:08:26;20.80;58.10
51801;DHT22;37855;53.204;6.568;2023-08-06T11:10:52;20.80;58.20
51801;DHT22;37855;53.204;6.568;2023-08-06T11:13:18;20.90;58.60
51801;DHT22;37855;53.204;6.568;2023-08-06T11:15:45;21.10;58.60
51801;DHT22;37855;53.204;6.568;2023-08-06T11:18:11;21.30;58.20
51801;DHT22;37855;53.204;6.568;2023-08-06T11:20:37;21.40;58.00
51801;DHT22;37855;53.204;6.568;2023-08-06T11:23:03;21.40;57.30
51801;DHT22;37855;53.204;6.568;2023-08-06T11:25:30;21.50;57.80
51801;DHT22;37855;53.204;6.568;2023-08-06T11:27:55;21.60;58.00
51801;DHT22;37855;53.204;6.568;2023-08-06T11:30:21;21.70;58.00
51801;DHT22;37855;53.204;6.568;2023-08-06T11:32:47;21.60;55.40
51801;DHT22;37855;53.204;6.568;2023-08-06T11:35:15;21.30;56.20
51801;DHT22;37855;53.204;6.568;2023-08-06T11:37:47;21.20;56.30
51801;DHT22;37855;53.204;6.568;2023-08-06T11:40:15;21.10;57.40
51801;DHT22;37855;53.204;6.568;2023-08-06T11:42:41;21.10;57.90
51801;DHT22;37855;53.204;6.568;2023-08-06T11:45:08;21.00;57.70
51801;DHT22;37855;53.204;6.568;2023-08-06T11:47:38;21.10;57.30
51801;DHT22;37855;53.204;6.568;2023-08-06T11:50:09;21.30;56.90
51801;DHT22;37855;53.204;6.568;2023-08-06T11:52:47;21.30;55.90
51801;DHT22;37855;53.204;6.568;2023-08-06T11:55:12;21.40;54.70
51801;DHT22;37855;53.204;6.568;2023-08-06T11:57:43;21.50;55.10
51801;DHT22;37855;53.204;6.568;2023-08-06T12:00:11;21.50;53.70
51801;DHT22;37855;53.204;6.568;2023-08-06T12:02:40;21.40;55.10
51801;DHT22;37855;53.204;6.568;2023-08-06T12:05:20;21.30;55.80
51801;DHT22;37855;53.204;6.568;2023-08-06T12:07:50;21.40;56.60
51801;DHT22;37855;53.204;6.568;2023-08-06T12:10:17;21.40;56.00
51801;DHT22;37855;53.204;6.568;2023-08-06T12:12:45;21.30;56.30
51801;DHT22;37855;53.204;6.568;2023-08-06T12:15:11;21.20;56.60
51801;DHT22;37855;53.204;6.568;2023-08-06T12:17:37;21.20;56.30
51801;DHT22;37855;53.204;6.568;2023-08-06T12:20:04;21.20;56.70
51801;DHT22;37855;53.204;6.568;2023-08-06T12:22:30;21.10;57.20
51801;DHT22;37855;53.204;6.568;2023-08-06T12:25:05;21.00;56.90
51801;DHT22;37855;53.204;6.568;2023-08-06T12:27:37;21.00;57.10
51801;DHT22;37855;53.204;6.568;2023-08-06T12:30:04;21.00;57.60
51801;DHT22;37855;53.204;6.568;2023-08-06T12:32:30;21.00;57.60
51801;DHT22;37855;53.204;6.568;2023-08-06T12:34:56;21.00;56.80
51801;DHT22;37855;53.204;6.568;2023-08-06T12:37:22;21.00;56.70
51801;DHT22;37855;53.204;6.568;2023-08-06T12:39:48;20.90;57.10
51801;DHT22;37855;53.204;6.568;2023-08-06T12:42:14;20.90;57.30
51801;DHT22;37855;53.204;6.568;2023-08-06T12:44:40;20.90;57.50
51801;DHT22;37855;53.204;6.568;2023-08-06T12:47:07;20.90;57.90
51801;DHT22;37855;53.204;6.568;2023-08-06T12:49:33;20.90;58.00
51801;DHT22;37855;53.204;6.568;2023-08-06T12:51:59;20.90;57.80
51801;DHT22;37855;53.204;6.568;2023-08-06T12:54:25;21.00;57.70
51801;DHT22;37855;53.204;6.568;2023-08-06T12:56:51;21.20;57.60
51801;DHT22;37855;53.204;6.568;2023-08-06T12:59:18;21.30;57.50
51801;DHT22;37855;53.204;6.568;2023-08-06T13:01:44;21.20;57.50
51801;DHT22;37855;53.204;6.568;2023-08-06T13:04:10;21.30;57.00
51801;DHT22;37855;53.204;6.568;2023-08-06T13:06:39;21.20;57.60
51801;DHT22;37855;53.204;6.568;2023-08-06T13:09:06;21.20;58.20
51801;DHT22;37855;53.204;6.568;2023-08-06T13:11:34;21.30;58.10
51801;DHT22;37855;53.204;6.568;2023-08-06T13:14:05;21.30;57.40
51801;DHT22;37855;53.204;6.568;2023-08-06T13:16:35;21.30;57.90
51801;DHT22;37855;53.204;6.568;2023-08-06T13:19:02;21.40;56.70
51801;DHT22;37855;53.204;6.568;2023-08-06T13:21:35;21.40;57.60
51801;DHT22;37855;53.204;6.568;2023-08-06T13:24:02;21.50;57.80
51801;DHT22;37855;53.204;6.568;2023-08-06T13:26:34;21.50;57.20
51801;DHT22;37855;53.204;6.568;2023-08-06T13:29:00;21.60;57.30
51801;DHT22;37855;53.204;6.568;2023-08-06T13:31:27;21.60;57.00
51801;DHT22;37855;53.204;6.568;2023-08-06T13:33:54;21.60;57.30
51801;DHT22;37855;53.204;6.568;2023-08-06T13:36:25;21.50;57.90
51801;DHT22;37855;53.204;6.568;2023-08-06T13:38:51;21.30;58.30
51801;DHT22;37855;53.204;6.568;2023-08-06T13:41:17;21.10;59.10
51801;DHT22;37855;53.204;6.568;2023-08-06T13:43:43;21.00;59.70
51801;DHT22;37855;53.204;6.568;2023-08-06T13:46:12;20.90;59.80
51801;DHT22;37855;53.204;6.568;2023-08-06T13:48:45;21.00;59.90
51801;DHT22;37855;53.204;6.568;2023-08-06T13:51:12;21.10;59.50
51801;DHT22;37855;53.204;6.568;2023-08-06T13:53:39;21.20;58.30
51801;DHT22;37855;53.204;6.568;2023-08-06T13:56:08;21.10;58.30
51801;DHT22;37855;53.204;6.568;2023-08-06T13:58:40;21.10;58.50
51801;DHT22;37855;53.204;6.568;2023-08-06T14:01:06;21.10;58.50
51801;DHT22;37855;53.204;6.568;2023-08-06T14:03:32;21.00;57.90
51801;DHT22;37855;53.204;6.568;2023-08-06T14:05:58;20.90;58.40
51801;DHT22;37855;53.204;6.568;2023-08-06T14:08:24;20.90;58.40
51801;DHT22;37855;53.204;6.568;2023-08-06T14:10:53;20.90;58.20
51801;DHT22;37855;53.204;6.568;2023-08-06T14:13:20;20.90;58.40
51801;DHT22;37855;53.204;6.568;2023-08-06T14:15:46;20.90;58.30
51801;DHT22;37855;53.204;6.568;2023-08-06T14:18:15;20.90;58.30
51801;DHT22;37855;53.204;6.568;2023-08-06T14:20:42;20.70;58.30
51801;DHT22;37855;53.204;6.568;2023-08-06T14:23:08;20.50;58.70
51801;DHT22;37855;53.204;6.568;2023-08-06T14:25:33;20.40;59.00
51801;DHT22;37855;53.204;6.568;2023-08-06T14:27:59;20.40;59.00
51801;DHT22;37855;53.204;6.568;2023-08-06T14:30:25;20.50;58.70
51801;DHT22;37855;53.204;6.568;2023-08-06T14:32:51;20.50;58.50
51801;DHT22;37855;53.204;6.568;2023-08-06T14:35:17;20.60;58.50
51801;DHT22;37855;53.204;6.568;2023-08-06T14:37:42;20.80;58.10
51801;DHT22;37855;53.204;6.568;2023-08-06T14:40:10;20.70;58.20
51801;DHT22;37855;53.204;6.568;2023-08-06T14:42:36;20.80;58.10
51801;DHT22;37855;53.204;6.568;2023-08-06T14:45:02;20.80;58.00
51801;DHT22;37855;53.204;6.568;2023-08-06T14:47:28;20.90;57.90
51801;DHT22;37855;53.204;6.568;2023-08-06T14:49:53;20.90;57.00
51801;DHT22;37855;53.204;6.568;2023-08-06T14:52:19;20.80;57.00
51801;DHT22;37855;53.204;6.568;2023-08-06T14:54:44;20.80;56.20
51801;DHT22;37855;53.204;6.568;2023-08-06T14:57:10;20.70;56.70
51801;DHT22;37855;53.204;6.568;2023-08-06T14:59:36;20.80;56.90
51801;DHT22;37855;53.204;6.568;2023-08-06T15:02:02;20.80;57.10
51801;DHT22;37855;53.204;6.568;2023-08-06T15:04:29;20.90;56.80
51801;DHT22;37855;53.204;6.568;2023-08-06T15:06:55;20.90;56.20
51801;DHT22;37855;53.204;6.568;2023-08-06T15:09:20;20.90;56.10
51801;DHT22;37855;53.204;6.568;2023-08-06T15:11:47;20.80;56.10
51801;DHT22;37855;53.204;6.568;2023-08-06T15:14:14;20.90;56.60
51801;DHT22;37855;53.204;6.568;2023-08-06T15:16:40;20.90;57.10
51801;DHT22;37855;53.204;6.568;2023-08-06T15:19:06;21.00;57.10
51801;DHT22;37855;53.204;6.568;2023-08-06T15:21:32;20.90;56.80
51801;DHT22;37855;53.204;6.568;2023-08-06T15:24:00;20.90;56.80
51801;DHT22;37855;53.204;6.568;2023-08-06T15:26:26;20.90;57.10
51801;DHT22;37855;53.204;6.568;2023-08-06T15:28:52;20.90;56.90
51801;DHT22;37855;53.204;6.568;2023-08-06T15:31:20;21.00;57.00
51801;DHT22;37855;53.204;6.568;2023-08-06T15:33:46;21.10;56.70
51801;DHT22;37855;53.204;6.568;2023-08-06T15:36:12;21.10;57.00
51801;DHT22;37855;53.204;6.568;2023-08-06T15:38:39;21.30;56.40
51801;DHT22;37855;53.204;6.568;2023-08-06T15:41:04;21.30;56.20
51801;DHT22;37855;53.204;6.568;2023-08-06T15:43:30;21.30;56.20